Time;durP1;ratioP1;P1;durP2;ratioP2;P2;SDS_P1;SDS_P2;PMS_P1;PMS_P2;Temp;Humidity;BMP_temperature;BMP_pressure;BME280_temperature;BME280_humidity;BME280_pressure;Samples;Min_cycle;Max_cycle;Signal;HPM_P1;HPM_P2
2023/10/10 05:44:57;;;;;;;;;24.00;22.25;;;;;;;;5125463;27;14212;-74
2023/10/10 05:47:24;;;;;;;;;22.50;20.50;;;;;;;;5127247;27;10962;-70
2023/10/10 05:49:49;;;;;;;;;22.75;21.75;;;;;;;;5128772;27;10668;-70
2023/10/10 05:52:14;;;;;;;;;21.75;19.25;;;;;;;;5128805;27;10903;-80
2023/10/10 05:54:39;;;;;;;;;23.00;21.25;;;;;;;;5128589;27;8790;-71
2023/10/10 05:57:05;;;;;;;;;18.00;17.50;;;;;;;;5128615;27;8820;-80
2023/10/10 05:59:31;;;;;;;;;21.25;17.50;;;;;;;;5128632;27;8831;-76
2023/10/10 06:01:56;;;;;;;;;23.00;18.75;;;;;;;;5131316;27;11471;-75
2023/10/10 06:04:21;;;;;;;;;22.50;20.25;;;;;;;;5149214;27;8982;-73
2023/10/10 06:06:46;;;;;;;;;23.25;18.75;;;;;;;;5149212;27;8791;-73
2023/10/10 06:09:18;;;;;;;;;24.00;20.75;;;;;;;;5149099;27;9644;-70
2023/10/10 06:11:46;;;;;;;;;20.75;16.25;;;;;;;;5149171;27;9557;-73
2023/10/10 06:14:11;;;;;;;;;20.00;19.75;;;;;;;;5149086;27;10751;-71
2023/10/10 06:16:37;;;;;;;;;23.00;23.00;;;;;;;;5148734;27;11924;-72
2023/10/10 06:19:02;;;;;;;;;14.50;14.25;;;;;;;;5148851;27;8938;-70
2023/10/10 06:21:29;;;;;;;;;18.50;15.75;;;;;;;;5148779;27;8779;-71
2023/10/10 06:23:54;;;;;;;;;19.00;17.75;;;;;;;;5147496;27;8786;-70
2023/10/10 06:26:21;;;;;;;;;21.50;20.50;;;;;;;;5148464;27;10893;-70
2023/10/10 06:28:49;;;;;;;;;21.50;19.50;;;;;;;;5147372;27;8806;-71
2023/10/10 06:31:19;;;;;;;;;21.25;17.00;;;;;;;;5149006;27;10945;-72
2023/10/10 06:33:48;;;;;;;;;15.25;10.50;;;;;;;;5148543;27;10644;-71
2023/10/10 06:38:59;;;;;;;;;22.75;22.00;;;;;;;;5148452;27;11087;-71
2023/10/10 06:41:34;;;;;;;;;18.00;18.00;;;;;;;;5134415;27;10800;-71
2023/10/10 06:43:59;;;;;;;;;20.00;20.00;;;;;;;;5134463;27;10715;-70
2023/10/10 06:46:32;;;;;;;;;22.50;20.00;;;;;;;;5133150;27;10690;-70
2023/10/10 06:49:04;;;;;;;;;17.50;15.50;;;;;;;;5134391;27;8779;-71
2023/10/10 06:51:29;;;;;;;;;26.50;20.50;;;;;;;;5134590;27;10473;-75
2023/10/10 06:53:56;;;;;;;;;20.50;17.00;;;;;;;;5134290;27;10727;-71
2023/10/10 06:56:43;;;;;;;;;17.75;17.50;;;;;;;;5134351;27;8779;-72
2023/10/10 06:59:09;;;;;;;;;27.50;22.75;;;;;;;;5134127;27;10588;-70
2023/10/10 07:01:34;;;;;;;;;21.25;18.25;;;;;;;;5134348;27;10907;-70
2023/10/10 07:04:04;;;;;;;;;25.75;25.00;;;;;;;;5133984;27;10681;-70
2023/10/10 07:06:29;;;;;;;;;23.00;18.75;;;;;;;;5134161;27;8801;-71
2023/10/10 07:11:39;;;;;;;;;24.25;19.75;;;;;;;;5134238;27;8762;-72
2023/10/10 07:14:07;;;;;;;;;17.25;15.00;;;;;;;;5134177;27;10512;-71
2023/10/10 07:16:33;;;;;;;;;18.25;16.50;;;;;;;;5132650;27;8830;-71
2023/10/10 07:18:58;;;;;;;;;16.00;16.00;;;;;;;;5133686;27;10595;-70
2023/10/10 07:21:35;;;;;;;;;18.00;18.00;;;;;;;;5133757;27;8783;-71
2023/10/10 07:24:13;;;;;;;;;18.75;17.50;;;;;;;;5133994;27;8782;-71
2023/10/10 07:26:41;;;;;;;;;20.00;18.75;;;;;;;;5132584;27;10266;-70
2023/10/10 07:29:57;;;;;;;;;20.00;19.00;;;;;;;;5133836;27;10344;-70
2023/10/10 07:32:17;;;;;;;;;20.75;18.75;;;;;;;;5139054;22;10764;-73
2023/10/10 07:34:49;;;;;;;;;21.75;19.25;;;;;;;;5091922;28;10427;-71
2023/10/10 07:37:15;;;;;;;;;17.50;15.50;;;;;;;;5092095;28;10582;-70
2023/10/10 07:39:55;;;;;;;;;21.00;21.00;;;;;;;;5073434;28;10573;-69
2023/10/10 07:42:27;;;;;;;;;22.75;20.50;;;;;;;;5091745;28;8806;-71
2023/10/10 07:44:54;;;;;;;;;21.75;20.75;;;;;;;;5091771;28;11480;-70
2023/10/10 07:47:25;;;;;;;;;24.50;21.50;;;;;;;;5091397;28;10662;-70
2023/10/10 07:49:51;;;;;;;;;21.00;19.00;;;;;;;;5073330;28;10599;-70
2023/10/10 07:52:20;;;;;;;;;21.25;20.00;;;;;;;;5090365;28;10697;-70
2023/10/10 07:54:46;;;;;;;;;20.50;18.00;;;;;;;;5091311;28;8778;-70
2023/10/10 07:57:17;;;;;;;;;24.25;20.00;;;;;;;;5073142;28;10431;-70
2023/10/10 07:59:43;;;;;;;;;21.25;20.25;;;;;;;;5091261;28;10632;-70
2023/10/10 08:04:53;;;;;;;;;23.00;19.50;;;;;;;;5091299;28;8774;-71
2023/10/10 08:07:19;;;;;;;;;21.25;20.00;;;;;;;;5091159;28;10368;-71
2023/10/10 08:09:46;;;;;;;;;23.00;22.00;;;;;;;;5091291;28;11282;-70
2023/10/10 08:12:11;;;;;;;;;17.25;15.00;;;;;;;;5072865;28;8830;-71
2023/10/10 08:14:39;;;;;;;;;21.00;19.50;;;;;;;;5072821;28;11111;-70
2023/10/10 08:17:18;;;;;;;;;22.00;20.00;;;;;;;;5090888;28;8924;-72
2023/10/10 08:19:50;;;;;;;;;20.25;18.25;;;;;;;;5090817;28;11284;-71
2023/10/10 08:22:15;;;;;;;;;20.50;20.50;;;;;;;;5090929;28;10284;-70
2023/10/10 08:24:43;;;;;;;;;20.00;19.00;;;;;;;;5090797;28;10486;-71
2023/10/10 08:27:10;;;;;;;;;26.50;22.50;;;;;;;;5091047;28;9876;-71
2023/10/10 08:29:36;;;;;;;;;23.75;23.25;;;;;;;;5090781;28;10604;-71
2023/10/10 08:32:05;;;;;;;;;21.25;19.25;;;;;;;;5090844;28;10640;-71
2023/10/10 08:34:31;;;;;;;;;21.25;20.00;;;;;;;;5072666;28;8809;-71
2023/10/10 08:37:03;;;;;;;;;20.25;19.75;;;;;;;;5090703;28;10561;-71
2023/10/10 08:39:35;;;;;;;;;16.00;16.00;;;;;;;;5090623;28;10532;-71
2023/10/10 08:42:05;;;;;;;;;20.00;18.50;;;;;;;;5072383;28;11139;-71
2023/10/10 08:44:36;;;;;;;;;17.25;16.75;;;;;;;;5090594;28;10189;-70
2023/10/10 08:47:01;;;;;;;;;19.75;16.00;;;;;;;;5090633;28;10262;-71
2023/10/10 08:49:27;;;;;;;;;20.75;19.00;;;;;;;;5090544;28;10237;-72
2023/10/10 08:51:58;;;;;;;;;18.25;16.75;;;;;;;;5090393;28;8798;-71
2023/10/10 08:54:24;;;;;;;;;22.75;22.00;;;;;;;;5090359;28;10185;-71
2023/10/10 08:59:52;;;;;;;;;19.25;18.00;;;;;;;;5027794;28;8987;-70
2023/10/10 09:02:19;;;;;;;;;22.75;20.50;;;;;;;;5077309;28;10876;-69
2023/10/10 09:04:44;;;;;;;;;18.00;18.00;;;;;;;;5090176;28;10362;-69
2023/10/10 09:07:27;;;;;;;;;16.00;16.00;;;;;;;;5090295;28;10888;-70
2023/10/10 09:10:05;;;;;;;;;18.50;18.50;;;;;;;;5090303;28;8798;-70
2023/10/10 09:12:34;;;;;;;;;18.50;18.50;;;;;;;;5090115;28;10048;-70
2023/10/10 09:15:09;;;;;;;;;18.50;16.50;;;;;;;;5071977;28;10075;-70
2023/10/10 09:17:35;;;;;;;;;17.25;17.00;;;;;;;;5090068;28;10269;-71
2023/10/10 09:20:17;;;;;;;;;24.00;19.75;;;;;;;;5089965;28;10184;-71
2023/10/10 09:22:44;;;;;;;;;17.50;15.00;;;;;;;;5090137;28;8920;-71
2023/10/10 09:28:15;;;;;;;;;16.00;16.00;;;;;;;;5090154;28;10214;-70
2023/10/10 09:30:45;;;;;;;;;23.25;20.25;;;;;;;;5090216;28;10022;-71
2023/10/10 09:33:22;;;;;;;;;23.00;21.00;;;;;;;;5090122;28;10234;-71
2023/10/10 09:35:53;;;;;;;;;22.75;20.75;;;;;;;;5089981;28;10105;-71
2023/10/10 09:38:21;;;;;;;;;20.50;19.50;;;;;;;;5089877;28;10235;-71
2023/10/10 09:40:59;;;;;;;;;21.50;21.50;;;;;;;;5089757;28;9932;-71
2023/10/10 09:43:35;;;;;;;;;17.75;17.00;;;;;;;;5090034;28;10220;-70
2023/10/10 09:46:11;;;;;;;;;16.00;15.25;;;;;;;;5089864;28;10244;-70
2023/10/10 09:51:30;;;;;;;;;17.25;16.25;;;;;;;;5089823;28;10091;-71
2023/10/10 09:54:07;;;;;;;;;22.75;18.00;;;;;;;;5089967;28;9959;-70
2023/10/10 09:56:34;;;;;;;;;23.50;19.25;;;;;;;;5089738;28;10123;-71
2023/10/10 09:58:59;;;;;;;;;18.75;16.75;;;;;;;;5089646;28;10014;-71
2023/10/10 10:01:25;;;;;;;;;19.25;16.00;;;;;;;;5089616;28;9861;-71
2023/10/10 10:04:00;;;;;;;;;19.50;17.50;;;;;;;;5089615;28;8830;-69
2023/10/10 10:06:50;;;;;;;;;16.00;15.50;;;;;;;;5089813;28;8791;-70
2023/10/10 10:09:32;;;;;;;;;17.75;16.00;;;;;;;;5089687;28;9866;-71
2023/10/10 10:12:19;;;;;;;;;20.75;16.50;;;;;;;;5089527;28;9721;-70
2023/10/10 10:14:47;;;;;;;;;19.00;16.00;;;;;;;;5090138;28;9642;-71
2023/10/10 10:17:23;;;;;;;;;15.25;15.25;;;;;;;;5093227;28;9790;-71
2023/10/10 10:19:49;;;;;;;;;18.75;17.00;;;;;;;;5093166;28;9748;-70
2023/10/10 10:22:17;;;;;;;;;17.00;16.75;;;;;;;;5093307;28;9784;-70
2023/10/10 10:24:44;;;;;;;;;18.25;17.00;;;;;;;;5093201;28;9568;-71
2023/10/10 10:27:31;;;;;;;;;16.00;15.50;;;;;;;;5093187;28;9848;-71
2023/10/10 10:30:07;;;;;;;;;15.50;14.00;;;;;;;;5093165;28;9722;-71
2023/10/10 10:32:39;;;;;;;;;16.75;16.50;;;;;;;;5093314;28;9512;-72
2023/10/10 10:35:12;;;;;;;;;18.75;16.25;;;;;;;;5092996;28;9810;-72
2023/10/10 10:37:39;;;;;;;;;18.25;17.00;;;;;;;;5093032;28;9658;-72
2023/10/10 10:42:51;;;;;;;;;23.50;22.00;;;;;;;;5092951;28;9968;-71
2023/10/10 10:45:38;;;;;;;;;18.50;18.50;;;;;;;;5092863;28;9658;-71
2023/10/10 10:48:07;;;;;;;;;22.25;20.75;;;;;;;;5092462;28;9488;-71
2023/10/10 10:50:42;;;;;;;;;16.75;16.00;;;;;;;;5092801;28;9730;-71
2023/10/10 10:59:11;;;;;;;;;20.33;15.67;;;;;;;;5092694;28;9275;-71
2023/10/10 11:01:38;;;;;;;;;26.50;23.00;;;;;;;;5092359;28;9336;-71
2023/10/10 11:04:05;;;;;;;;;18.67;17.00;;;;;;;;5092254;28;9719;-70
2023/10/10 11:06:30;;;;;;;;;16.75;14.75;;;;;;;;5092750;28;9333;-71
2023/10/10 11:09:08;;;;;;;;;21.25;21.00;;;;;;;;5092362;28;9481;-69
2023/10/10 11:16:56;;;;;;;;;16.25;16.25;;;;;;;;5092364;28;8810;-70
2023/10/10 11:21:48;;;;;;;;;21.25;18.25;;;;;;;;5092149;28;9312;-71
2023/10/10 11:24:29;;;;;;;;;18.25;17.50;;;;;;;;5091965;28;8778;-70
2023/10/10 11:30:00;;;;;;;;;23.25;20.25;;;;;;;;5092037;28;9571;-70
2023/10/10 11:32:29;;;;;;;;;15.00;15.00;;;;;;;;5092003;28;9713;-70
2023/10/10 11:35:17;;;;;;;;;26.00;24.00;;;;;;;;5091959;28;9445;-70
2023/10/10 11:37:47;;;;;;;;;18.00;16.50;;;;;;;;5092044;28;9863;-70
2023/10/10 11:40:19;;;;;;;;;18.00;16.75;;;;;;;;5092016;28;9742;-70
2023/10/10 11:42:47;;;;;;;;;18.75;17.50;;;;;;;;5091718;28;9288;-70
2023/10/10 11:45:19;;;;;;;;;14.00;14.00;;;;;;;;5091780;28;9334;-70
2023/10/10 11:47:45;;;;;;;;;22.00;19.75;;;;;;;;5091526;28;10332;-70
2023/10/10 11:50:15;;;;;;;;;18.50;17.50;;;;;;;;5091587;28;9722;-70
2023/10/10 11:52:53;;;;;;;;;17.00;16.25;;;;;;;;5091667;28;8802;-70
2023/10/10 11:55:25;;;;;;;;;19.50;17.50;;;;;;;;5091561;28;9472;-70
2023/10/10 11:57:51;;;;;;;;;20.50;20.25;;;;;;;;5091363;28;10324;-70
2023/10/10 12:00:30;;;;;;;;;10.50;9.25;;;;;;;;5091269;28;9698;-71
2023/10/10 12:02:57;;;;;;;;;17.00;15.75;;;;;;;;5072895;28;9439;-70
2023/10/10 12:07:53;;;;;;;;;18.25;17.00;;;;;;;;5091472;28;9444;-70
2023/10/10 12:10:22;;;;;;;;;22.25;22.25;;;;;;;;5091201;28;9330;-70
2023/10/10 12:12:51;;;;;;;;;17.25;15.25;;;;;;;;5090986;28;8810;-71
2023/10/10 12:15:19;;;;;;;;;16.75;15.00;;;;;;;;5091233;28;10509;-70
2023/10/10 12:17:44;;;;;;;;;18.50;16.25;;;;;;;;5090778;28;9643;-70
2023/10/10 12:20:10;;;;;;;;;19.25;19.25;;;;;;;;5090807;28;9585;-70
2023/10/10 12:22:35;;;;;;;;;28.25;26.00;;;;;;;;5090823;28;8809;-71
2023/10/10 12:25:00;;;;;;;;;18.25;17.25;;;;;;;;5090927;28;8805;-70
2023/10/10 12:27:30;;;;;;;;;16.25;14.00;;;;;;;;5090719;28;8802;-71
2023/10/10 12:29:56;;;;;;;;;22.00;20.75;;;;;;;;5090904;28;8832;-72
2023/10/10 12:32:22;;;;;;;;;20.75;18.00;;;;;;;;5108510;22;9962;-68
2023/10/10 12:34:47;;;;;;;;;19.25;18.50;;;;;;;;5093509;28;10539;-69
2023/10/10 12:37:15;;;;;;;;;17.00;16.00;;;;;;;;5111649;28;10057;-69
2023/10/10 12:39:41;;;;;;;;;14.67;14.00;;;;;;;;5111539;28;9558;-68
2023/10/10 12:42:07;;;;;;;;;17.25;17.00;;;;;;;;5111673;28;9401;-67
2023/10/10 12:44:33;;;;;;;;;10.00;10.00;;;;;;;;5111829;28;9536;-68
2023/10/10 12:46:59;;;;;;;;;22.25;18.50;;;;;;;;5111529;28;12395;-68
2023/10/10 12:49:28;;;;;;;;;15.00;15.00;;;;;;;;5093195;28;8802;-68
2023/10/10 12:51:55;;;;;;;;;17.00;15.50;;;;;;;;5111602;28;9491;-68
2023/10/10 12:54:21;;;;;;;;;19.75;18.00;;;;;;;;5111525;28;9553;-68
